createdAt,value
2019-02-09T00:01:09.852Z,72.68
2019-02-09T00:04:32.590Z,72.19
2019-02-09T00:07:36.051Z,72.39
2019-02-09T00:10:39.496Z,72.60
2019-02-09T00:13:43.150Z,72.51
2019-02-09T00:16:46.681Z,72.88
2019-02-09T00:19:50.419Z,72.71
2019-02-09T00:22:53.953Z,72.86
2019-02-09T00:25:57.402Z,72.46
2019-02-09T00:32:31.127Z,73.42
2019-02-09T00:35:34.812Z,73.88
2019-02-09T00:38:38.211Z,73.95
2019-02-09T00:41:41.587Z,74.34
2019-02-09T00:44:44.980Z,74.47
2019-02-09T00:47:48.708Z,74.29
2019-02-09T00:50:52.412Z,74.68
2019-02-09T00:53:55.808Z,74.94
2019-02-09T00:57:11.821Z,75.12
2019-02-09T01:00:44.465Z,75.75
2019-02-09T01:03:47.850Z,75.56
2019-02-09T01:06:51.230Z,75.72
2019-02-09T01:09:54.690Z,75.82
2019-02-09T01:12:58.238Z,75.83
2019-02-09T01:16:01.621Z,76.04
2019-02-09T01:19:05.315Z,75.90
2019-02-09T01:22:08.779Z,76.21
2019-02-09T01:28:42.365Z,76.67
2019-02-09T01:31:45.752Z,76.90
2019-02-09T01:34:49.148Z,77.16
2019-02-09T01:41:36.063Z,77.33
2019-02-09T01:44:39.709Z,77.57
2019-02-09T01:47:43.101Z,77.52
2019-02-09T01:50:46.502Z,77.33
2019-02-09T01:53:49.896Z,77.31
2019-02-09T01:56:53.295Z,77.13
2019-02-09T01:59:56.693Z,77.31
2019-02-09T02:03:00.208Z,77.40
2019-02-09T02:06:03.934Z,77.28
2019-02-09T02:09:07.805Z,77.49
2019-02-09T02:15:22.106Z,78.10
2019-02-09T02:18:25.480Z,78.53
2019-02-09T02:21:29.183Z,77.93
2019-02-09T02:24:32.879Z,78.16
2019-02-09T02:27:36.274Z,78.10
2019-02-09T02:34:09.512Z,78.81
2019-02-09T02:37:12.931Z,78.63
2019-02-09T02:40:56.244Z,79.12
2019-02-09T02:43:59.641Z,79.46
2019-02-09T02:47:03.040Z,79.47
2019-02-09T02:50:27.207Z,79.78
2019-02-09T02:53:30.602Z,80.41
2019-02-09T02:56:34.253Z,81.62
2019-02-09T02:59:37.887Z,84.23
2019-02-09T03:03:00.694Z,86.50
2019-02-09T03:06:04.685Z,87.90
2019-02-09T03:09:28.864Z,90.36
2019-02-09T03:12:32.252Z,91.40
2019-02-09T03:16:15.807Z,92.19
2019-02-09T03:19:19.307Z,92.93
2019-02-09T03:22:22.641Z,91.63
2019-02-09T03:26:05.931Z,89.76
2019-02-09T03:29:09.327Z,88.70
2019-02-09T03:32:12.977Z,87.41
2019-02-09T03:35:56.529Z,86.71
2019-02-09T03:38:59.932Z,86.75
2019-02-09T03:42:03.628Z,86.55
2019-02-09T03:45:46.939Z,85.49
2019-02-09T03:48:50.333Z,84.70
2019-02-09T03:51:53.707Z,85.08
2019-02-09T03:54:57.111Z,84.42
2019-02-09T03:58:00.821Z,83.95
2019-02-09T04:04:33.541Z,84.17
2019-02-09T04:07:37.175Z,84.04
2019-02-09T04:10:40.580Z,83.98
2019-02-09T04:13:43.957Z,84.25
2019-02-09T04:16:47.601Z,84.53
2019-02-09T04:19:50.999Z,84.19
2019-02-09T04:22:54.699Z,84.96
2019-02-09T04:25:58.343Z,85.67
2019-02-09T04:29:01.975Z,86.04
2019-02-09T04:32:05.363Z,86.19
2019-02-09T04:35:28.166Z,85.71
2019-02-09T04:38:31.543Z,85.79
2019-02-09T04:41:35.182Z,85.15
2019-02-09T04:44:38.828Z,85.98
2019-02-09T04:47:42.224Z,85.90
2019-02-09T04:50:45.637Z,85.97
2019-02-09T04:53:48.996Z,86.54
2019-02-09T04:56:52.642Z,85.90
2019-02-09T04:59:56.019Z,86.25
2019-02-09T05:06:28.854Z,84.78
2019-02-09T05:09:32.321Z,83.40
2019-02-09T05:12:35.704Z,83.28
2019-02-09T05:15:39.092Z,83.94
2019-02-09T05:18:42.490Z,83.87
2019-02-09T05:21:46.129Z,83.84
2019-02-09T05:24:49.551Z,83.81
2019-02-09T05:27:53.060Z,83.75
2019-02-09T05:30:56.731Z,84.26
2019-02-09T05:34:00.436Z,84.71
2019-02-09T05:37:04.253Z,84.28
2019-02-09T05:40:10.970Z,83.57
2019-02-09T05:43:14.642Z,83.80
2019-02-09T05:46:18.022Z,83.78
2019-02-09T05:49:21.410Z,83.74
2019-02-09T05:52:24.790Z,82.84
2019-02-09T05:55:28.454Z,82.09
2019-02-09T05:58:32.069Z,81.70
2019-02-09T06:01:35.450Z,81.50
2019-02-09T06:04:38.850Z,80.54
2019-02-09T06:07:42.477Z,79.74
2019-02-09T06:10:45.886Z,80.16
2019-02-09T06:13:49.547Z,78.88
2019-02-09T06:16:52.917Z,78.93
2019-02-09T06:19:56.312Z,78.48
2019-02-09T06:22:59.813Z,78.97
2019-02-09T06:26:03.793Z,79.55
2019-02-09T06:29:07.237Z,79.98
2019-02-09T06:32:10.616Z,80.24
2019-02-09T06:35:14.158Z,79.63
2019-02-09T06:38:17.547Z,79.57
2019-02-09T06:41:20.942Z,80.44
2019-02-09T06:44:24.670Z,80.10
2019-02-09T06:47:28.042Z,80.12
2019-02-09T06:50:31.508Z,79.83
2019-02-09T06:53:35.010Z,79.65
2019-02-09T06:56:38.505Z,78.96
2019-02-09T06:59:41.911Z,79.30
2019-02-09T07:02:45.305Z,78.78
2019-02-09T07:05:48.998Z,79.23
2019-02-09T07:08:52.387Z,79.31
2019-02-09T07:11:56.705Z,79.41
2019-02-09T07:15:00.104Z,79.82
2019-02-09T07:18:03.725Z,79.51
2019-02-09T07:21:07.521Z,80.00
2019-02-09T07:24:19.325Z,80.49
2019-02-09T07:27:23.589Z,80.98
2019-02-09T07:30:35.045Z,81.25
2019-02-09T07:33:38.472Z,81.53
2019-02-09T07:36:42.444Z,81.46
2019-02-09T07:39:45.822Z,81.60
2019-02-09T07:42:50.151Z,80.70
2019-02-09T07:45:53.515Z,79.96
2019-02-09T07:48:56.903Z,78.57
2019-02-09T07:52:00.302Z,78.33
2019-02-09T07:55:05.299Z,77.19
2019-02-09T07:58:08.683Z,77.25
2019-02-09T08:01:12.060Z,76.56
2019-02-09T08:04:15.699Z,76.08
2019-02-09T08:07:19.164Z,74.69
2019-02-09T08:10:31.045Z,72.07
2019-02-09T08:13:34.910Z,71.91
2019-02-09T08:16:38.310Z,69.86
2019-02-09T08:19:41.697Z,69.81
2019-02-09T08:22:45.139Z,70.23
2019-02-09T08:25:49.035Z,69.81
2019-02-09T08:28:52.436Z,68.87
2019-02-09T08:31:56.065Z,67.93
2019-02-09T08:35:00.965Z,67.10
2019-02-09T08:38:05.608Z,66.74
2019-02-09T08:41:09.069Z,66.01
2019-02-09T08:44:12.912Z,66.43
2019-02-09T08:47:16.369Z,67.13
2019-02-09T08:50:22.682Z,67.75
2019-02-09T08:53:26.143Z,67.41
2019-02-09T08:56:29.530Z,67.82
2019-02-09T08:59:32.930Z,67.30
2019-02-09T09:02:36.311Z,68.23
2019-02-09T09:05:39.794Z,67.12
2019-02-09T09:08:43.200Z,66.91
2019-02-09T09:12:02.006Z,67.41
2019-02-09T09:15:11.604Z,67.81
2019-02-09T09:18:15.062Z,68.04
2019-02-09T09:21:18.532Z,67.61
2019-02-09T09:24:22.311Z,67.97
2019-02-09T09:27:26.007Z,67.81
2019-02-09T09:30:31.269Z,67.94
2019-02-09T09:33:34.670Z,67.95
2019-02-09T09:36:38.075Z,67.42
2019-02-09T09:39:41.478Z,67.11
2019-02-09T09:42:44.870Z,67.15
2019-02-09T09:45:48.274Z,67.04
2019-02-09T09:48:51.676Z,67.63
2019-02-09T09:51:55.468Z,66.93
2019-02-09T09:54:58.852Z,67.18
2019-02-09T09:58:02.322Z,66.49
2019-02-09T10:01:05.813Z,65.77
2019-02-09T10:04:09.581Z,65.33
2019-02-09T10:07:13.063Z,65.36
2019-02-09T10:10:18.645Z,64.81
2019-02-09T10:13:22.329Z,65.24
2019-02-09T10:16:25.737Z,64.98
2019-02-09T10:19:29.439Z,64.38
2019-02-09T10:22:32.824Z,63.55
2019-02-09T10:25:36.214Z,63.36
2019-02-09T10:28:39.614Z,63.30
2019-02-09T10:31:43.023Z,62.57
2019-02-09T10:34:46.412Z,62.13
2019-02-09T10:37:49.892Z,61.51
2019-02-09T10:40:53.532Z,59.97
2019-02-09T10:43:57.353Z,59.62
2019-02-09T10:47:01.147Z,59.56
2019-02-09T10:50:07.519Z,58.74
2019-02-09T10:53:11.014Z,58.01
2019-02-09T10:56:14.466Z,58.67
2019-02-09T10:59:17.864Z,58.48
2019-02-09T11:02:21.277Z,58.26
2019-02-09T11:05:24.728Z,58.17
2019-02-09T11:08:29.096Z,58.03
2019-02-09T11:11:32.481Z,58.14
2019-02-09T11:14:35.882Z,58.27
2019-02-09T11:17:39.282Z,59.03
2019-02-09T11:20:42.681Z,58.27
2019-02-09T11:23:47.058Z,59.39
2019-02-09T11:26:51.108Z,59.80
2019-02-09T11:29:54.775Z,60.24
2019-02-09T11:33:01.877Z,59.56
2019-02-09T11:36:03.987Z,60.22
2019-02-09T11:39:07.831Z,60.16
2019-02-09T11:42:11.475Z,60.03
2019-02-09T11:45:20.192Z,60.08
2019-02-09T11:48:23.674Z,59.79
2019-02-09T11:51:27.330Z,59.43
2019-02-09T11:54:30.989Z,60.10
2019-02-09T11:57:34.387Z,59.30
2019-02-09T12:00:50.764Z,59.31
2019-02-09T12:03:54.422Z,58.81
2019-02-09T12:06:57.811Z,57.80
2019-02-09T12:10:01.230Z,58.17
2019-02-09T12:13:06.461Z,58.00
2019-02-09T12:16:09.860Z,57.56
2019-02-09T12:19:13.265Z,57.86
2019-02-09T12:22:17.615Z,57.38
2019-02-09T12:25:35.291Z,56.46
2019-02-09T12:28:38.681Z,55.82
2019-02-09T12:31:42.150Z,56.03
2019-02-09T12:34:45.551Z,55.56
2019-02-09T12:37:48.945Z,55.86
2019-02-09T12:40:52.346Z,56.54
2019-02-09T12:43:55.980Z,56.18
2019-02-09T12:46:59.379Z,56.87
2019-02-09T12:50:03.007Z,57.58
2019-02-09T12:53:06.898Z,57.48
2019-02-09T12:56:18.055Z,57.09
2019-02-09T12:59:21.459Z,58.27
2019-02-09T13:02:24.879Z,57.18
2019-02-09T13:05:34.265Z,56.80
2019-02-09T13:08:37.662Z,56.76
2019-02-09T13:11:50.241Z,56.96
2019-02-09T13:14:53.890Z,56.65
2019-02-09T13:17:57.688Z,56.48
2019-02-09T13:21:01.081Z,56.04
2019-02-09T13:24:05.328Z,54.97
2019-02-09T13:27:08.977Z,54.46
2019-02-09T13:30:21.021Z,54.63
2019-02-09T13:33:24.677Z,54.59
2019-02-09T13:36:28.322Z,54.33
2019-02-09T13:39:31.971Z,54.34
2019-02-09T13:42:35.627Z,54.98
2019-02-09T13:45:48.767Z,56.82
2019-02-09T13:48:52.175Z,55.27
2019-02-09T13:51:55.831Z,55.15
2019-02-09T13:54:59.510Z,55.81
2019-02-09T13:58:03.118Z,55.76
2019-02-09T14:01:06.936Z,55.56
2019-02-09T14:04:10.339Z,56.46
2019-02-09T14:07:13.721Z,58.26
2019-02-09T14:10:19.200Z,59.36
2019-02-09T14:13:22.830Z,59.31
2019-02-09T14:16:27.552Z,59.20
2019-02-09T14:19:31.350Z,59.43
2019-02-09T14:22:34.806Z,59.28
2019-02-09T14:25:38.276Z,58.87
2019-02-09T14:28:41.674Z,58.74
2019-02-09T14:31:45.374Z,59.22
2019-02-09T14:34:49.064Z,58.77
2019-02-09T14:37:53.492Z,58.91
2019-02-09T14:40:57.295Z,59.56
2019-02-09T14:44:01.196Z,60.78
2019-02-09T14:47:05.126Z,61.04
2019-02-09T14:50:11.578Z,61.62
2019-02-09T14:53:15.799Z,62.16
2019-02-09T14:56:19.210Z,62.49
2019-02-09T14:59:22.609Z,63.01
2019-02-09T15:02:25.999Z,62.16
2019-02-09T15:05:32.528Z,62.30
2019-02-09T15:08:37.371Z,62.20
2019-02-09T15:11:40.803Z,62.02
2019-02-09T15:14:44.527Z,61.59
2019-02-09T15:17:48.330Z,61.40
2019-02-09T15:20:57.617Z,61.73
2019-02-09T15:24:01.003Z,61.18
2019-02-09T15:27:04.547Z,60.87
2019-02-09T15:30:11.136Z,61.25
2019-02-09T15:33:14.530Z,61.59
2019-02-09T15:36:18.178Z,60.64
2019-02-09T15:39:21.977Z,60.81
2019-02-09T15:42:25.398Z,60.38
2019-02-09T15:45:28.846Z,61.04
2019-02-09T15:48:32.319Z,60.53
2019-02-09T15:51:36.072Z,60.64
2019-02-09T15:54:40.807Z,60.67
2019-02-09T15:57:44.296Z,60.84
2019-02-09T16:00:47.688Z,61.04
2019-02-09T16:03:51.100Z,60.59
2019-02-09T16:06:54.516Z,60.45
2019-02-09T16:09:57.915Z,60.32
2019-02-09T16:13:01.633Z,60.62
2019-02-09T16:16:05.961Z,60.72
2019-02-09T16:19:09.407Z,61.29
2019-02-09T16:23:10.504Z,61.47
2019-02-09T16:26:13.884Z,62.31
2019-02-09T16:29:17.293Z,62.83
2019-02-09T16:32:20.710Z,63.40
2019-02-09T16:35:43.433Z,63.61
2019-02-09T16:38:46.936Z,63.89
2019-02-09T16:41:50.328Z,64.56
2019-02-09T16:44:53.761Z,64.91
2019-02-09T16:47:57.242Z,65.39
2019-02-09T16:51:00.622Z,65.79
2019-02-09T16:54:24.680Z,66.25
2019-02-09T16:57:28.370Z,67.15
2019-02-09T17:00:51.113Z,66.81
2019-02-09T17:03:54.518Z,66.80
2019-02-09T17:06:57.909Z,67.20
2019-02-09T17:10:01.394Z,67.87
2019-02-09T17:13:25.569Z,68.07
2019-02-09T17:16:28.953Z,68.82
2019-02-09T17:19:32.380Z,68.64
2019-02-09T17:22:36.209Z,68.55
2019-02-09T17:25:58.941Z,68.59
2019-02-09T17:29:02.412Z,69.06
2019-02-09T17:32:06.037Z,69.81
2019-02-09T17:35:30.225Z,70.21
2019-02-09T17:38:53.036Z,71.25
2019-02-09T17:41:56.677Z,72.20
2019-02-09T17:45:00.213Z,72.67
2019-02-09T17:48:22.999Z,72.41
2019-02-09T17:51:26.646Z,72.34
2019-02-09T17:54:30.120Z,72.23
2019-02-09T17:57:33.447Z,72.49
2019-02-09T18:00:56.021Z,72.75
2019-02-09T18:04:00.266Z,72.27
2019-02-09T18:07:05.027Z,72.32
2019-02-09T18:10:48.326Z,71.95
2019-02-09T18:13:51.721Z,71.70
2019-02-09T18:17:14.628Z,72.34
2019-02-09T18:20:57.938Z,72.33
2019-02-09T18:24:01.323Z,72.16
2019-02-09T18:27:24.163Z,72.67
2019-02-09T18:31:07.497Z,72.32
2019-02-09T18:34:10.892Z,73.55
2019-02-09T18:37:14.663Z,73.17
2019-02-09T18:40:57.977Z,73.67
2019-02-09T18:44:01.377Z,73.97
2019-02-09T18:47:04.912Z,74.01
2019-02-09T18:50:48.441Z,74.18
2019-02-09T18:53:51.837Z,73.93
2019-02-09T18:57:15.780Z,74.30
2019-02-09T19:00:40.199Z,74.42
2019-02-09T19:03:43.894Z,75.19
2019-02-09T19:06:47.275Z,75.45
2019-02-09T19:09:50.674Z,75.05
2019-02-09T19:12:54.411Z,75.42
2019-02-09T19:15:57.786Z,75.49
2019-02-09T19:19:01.195Z,75.31
2019-02-09T19:25:34.720Z,75.51
2019-02-09T19:28:38.120Z,75.02
2019-02-09T19:31:41.681Z,74.69
2019-02-09T19:34:52.808Z,75.14
2019-02-09T19:38:15.530Z,74.85
2019-02-09T19:41:19.170Z,75.11
2019-02-09T19:44:23.385Z,75.27
2019-02-09T19:47:26.731Z,75.61
2019-02-09T19:50:30.441Z,75.56
2019-02-09T19:53:34.115Z,75.42
2019-02-09T19:56:56.849Z,75.60
2019-02-09T20:00:00.297Z,75.84
2019-02-09T20:03:24.325Z,75.33
2019-02-09T20:06:27.740Z,74.95
2019-02-09T20:09:31.141Z,75.03
2019-02-09T20:12:34.763Z,74.91
2019-02-09T20:15:38.247Z,75.14
2019-02-09T20:19:01.222Z,74.91
2019-02-09T20:22:05.144Z,75.42
2019-02-09T20:25:48.470Z,75.69
2019-02-09T20:28:51.871Z,75.62
2019-02-09T20:31:55.283Z,76.13
2019-02-09T20:35:18.710Z,76.27
2019-02-09T20:38:22.096Z,76.20
2019-02-09T20:41:25.956Z,76.21
2019-02-09T20:44:29.587Z,76.19
2019-02-09T20:47:33.041Z,75.65
2019-02-09T20:50:36.770Z,75.79
2019-02-09T20:53:40.173Z,75.74
2019-02-09T20:56:43.579Z,75.66
2019-02-09T20:59:47.222Z,75.91
2019-02-09T21:02:50.628Z,75.28
2019-02-09T21:05:54.019Z,75.55
2019-02-09T21:08:57.674Z,75.78
2019-02-09T21:12:01.073Z,76.09
2019-02-09T21:15:25.255Z,76.29
2019-02-09T21:19:08.568Z,76.41
2019-02-09T21:22:24.030Z,76.23
2019-02-09T21:25:47.531Z,76.10
2019-02-09T21:28:50.941Z,76.02
2019-02-09T21:31:54.331Z,76.21
2019-02-09T21:34:57.984Z,76.01
2019-02-09T21:38:01.478Z,76.19
2019-02-09T21:41:05.096Z,75.86
2019-02-09T21:44:08.503Z,76.04
2019-02-09T21:47:11.899Z,75.74
2019-02-09T21:50:35.611Z,75.84
2019-02-09T21:53:58.350Z,75.98
2019-02-09T21:57:01.742Z,76.17
2019-02-09T22:00:45.052Z,76.08
2019-02-09T22:03:48.451Z,75.86
2019-02-09T22:06:51.849Z,75.84
2019-02-09T22:09:55.265Z,75.90
2019-02-09T22:12:58.678Z,76.02
2019-02-09T22:16:02.076Z,76.05
2019-02-09T22:19:05.503Z,76.11
2019-02-09T22:22:09.065Z,76.24
2019-02-09T22:25:31.965Z,76.46
2019-02-09T22:28:35.355Z,76.72
2019-02-09T22:31:38.757Z,76.72
2019-02-09T22:34:42.160Z,76.78
2019-02-09T22:37:51.733Z,76.52
2019-02-09T22:40:55.131Z,76.79
2019-02-09T22:43:58.565Z,76.78
2019-02-09T22:47:05.110Z,76.57
2019-02-09T22:50:30.130Z,76.69
2019-02-09T22:53:33.548Z,76.78
2019-02-09T22:56:36.948Z,76.54
2019-02-09T22:59:40.346Z,76.67
2019-02-09T23:02:43.748Z,76.54
2019-02-09T23:06:14.001Z,76.34
2019-02-09T23:09:17.744Z,76.22
2019-02-09T23:12:21.189Z,76.65
2019-02-09T23:15:24.586Z,76.53
2019-02-09T23:18:28.004Z,76.45
2019-02-09T23:21:32.075Z,76.26
2019-02-09T23:24:35.476Z,75.99
2019-02-09T23:27:38.861Z,76.46
2019-02-09T23:30:45.312Z,76.47
2019-02-09T23:33:48.728Z,75.60
2019-02-09T23:36:52.369Z,76.34
2019-02-09T23:39:55.770Z,75.54
2019-02-09T23:42:59.157Z,75.53
2019-02-09T23:46:04.539Z,75.60
2019-02-09T23:49:07.955Z,75.85
2019-02-09T23:52:13.273Z,76.11
2019-02-09T23:55:16.675Z,76.06
2019-02-09T23:58:20.073Z,76.61
